sensor_id;sensor_type;location;lat;lon;timestamp;P1;durP1;ratioP1;P2;durP2;ratioP2
53642;SDS011;39546;45.534;12.048;2022-10-01T00:00:52;3.33;;;2.12;;
53642;SDS011;39546;45.534;12.048;2022-10-01T00:06:55;2.30;;;1.70;;
53642;SDS011;39546;45.534;12.048;2022-10-01T00:12:59;2.78;;;2.10;;
53642;SDS011;39546;45.534;12.048;2022-10-01T00:19:03;2.50;;;1.08;;
53642;SDS011;39546;45.534;12.048;2022-10-01T00:25:05;1.87;;;1.73;;
53642;SDS011;39546;45.534;12.048;2022-10-01T00:31:08;4.72;;;1.23;;
53642;SDS011;39546;45.534;12.048;2022-10-01T00:37:11;2.97;;;2.05;;
53642;SDS011;39546;45.534;12.048;2022-10-01T00:43:22;2.85;;;1.83;;
53642;SDS011;39546;45.534;12.048;2022-10-01T00:50:10;2.45;;;1.83;;
53642;SDS011;39546;45.534;12.048;2022-10-01T00:56:18;2.28;;;1.87;;
53642;SDS011;39546;45.534;12.048;2022-10-01T01:02:20;3.12;;;2.20;;
53642;SDS011;39546;45.534;12.048;2022-10-01T01:08:22;2.85;;;1.98;;
53642;SDS011;39546;45.534;12.048;2022-10-01T01:14:40;2.83;;;2.03;;
53642;SDS011;39546;45.534;12.048;2022-10-01T01:27:15;1.70;;;1.60;;
53642;SDS011;39546;45.534;12.048;2022-10-01T01:33:25;3.05;;;2.08;;
53642;SDS011;39546;45.534;12.048;2022-10-01T01:39:31;1.35;;;1.25;;
53642;SDS011;39546;45.534;12.048;2022-10-01T01:45:35;1.17;;;1.08;;
53642;SDS011;39546;45.534;12.048;2022-10-01T01:51:48;2.42;;;1.83;;
53642;SDS011;39546;45.534;12.048;2022-10-01T01:58:06;1.95;;;1.35;;
53642;SDS011;39546;45.534;12.048;2022-10-01T02:22:50;1.85;;;1.30;;
53642;SDS011;39546;45.534;12.048;2022-10-01T02:28:58;2.25;;;1.73;;
53642;SDS011;39546;45.534;12.048;2022-10-01T02:35:07;1.23;;;1.10;;
53642;SDS011;39546;45.534;12.048;2022-10-01T02:41:14;1.50;;;1.40;;
53642;SDS011;39546;45.534;12.048;2022-10-01T02:47:47;1.50;;;1.12;;
53642;SDS011;39546;45.534;12.048;2022-10-01T02:53:55;1.87;;;1.30;;
53642;SDS011;39546;45.534;12.048;2022-10-01T03:00:22;2.17;;;1.52;;
53642;SDS011;39546;45.534;12.048;2022-10-01T03:06:24;1.55;;;1.30;;
53642;SDS011;39546;45.534;12.048;2022-10-01T03:12:28;2.50;;;1.62;;
53642;SDS011;39546;45.534;12.048;2022-10-01T03:18:30;2.15;;;1.70;;
53642;SDS011;39546;45.534;12.048;2022-10-01T03:24:32;2.55;;;1.77;;
53642;SDS011;39546;45.534;12.048;2022-10-01T03:30:43;2.25;;;1.85;;
53642;SDS011;39546;45.534;12.048;2022-10-01T03:36:59;2.22;;;1.40;;
53642;SDS011;39546;45.534;12.048;2022-10-01T03:43:01;2.83;;;1.85;;
53642;SDS011;39546;45.534;12.048;2022-10-01T03:49:03;2.53;;;1.92;;
53642;SDS011;39546;45.534;12.048;2022-10-01T03:55:05;2.35;;;1.83;;
53642;SDS011;39546;45.534;12.048;2022-10-01T04:01:08;3.35;;;1.95;;
53642;SDS011;39546;45.534;12.048;2022-10-01T04:07:10;3.50;;;1.77;;
53642;SDS011;39546;45.534;12.048;2022-10-01T04:13:12;4.32;;;2.33;;
53642;SDS011;39546;45.534;12.048;2022-10-01T04:19:14;3.00;;;1.60;;
53642;SDS011;39546;45.534;12.048;2022-10-01T04:25:16;2.10;;;1.60;;
53642;SDS011;39546;45.534;12.048;2022-10-01T04:31:18;1.42;;;1.30;;
53642;SDS011;39546;45.534;12.048;2022-10-01T04:37:26;1.12;;;1.02;;
53642;SDS011;39546;45.534;12.048;2022-10-01T04:43:28;2.12;;;1.70;;
53642;SDS011;39546;45.534;12.048;2022-10-01T04:49:30;1.85;;;1.55;;
53642;SDS011;39546;45.534;12.048;2022-10-01T04:55:33;1.50;;;1.40;;
53642;SDS011;39546;45.534;12.048;2022-10-01T05:01:38;0.93;;;0.93;;
53642;SDS011;39546;45.534;12.048;2022-10-01T05:07:42;0.90;;;0.90;;
53642;SDS011;39546;45.534;12.048;2022-10-01T05:13:44;1.25;;;1.12;;
53642;SDS011;39546;45.534;12.048;2022-10-01T05:19:46;1.52;;;1.08;;
53642;SDS011;39546;45.534;12.048;2022-10-01T05:25:50;1.20;;;1.10;;
53642;SDS011;39546;45.534;12.048;2022-10-01T05:31:51;1.92;;;1.55;;
53642;SDS011;39546;45.534;12.048;2022-10-01T05:37:54;1.65;;;1.15;;
53642;SDS011;39546;45.534;12.048;2022-10-01T05:50:39;6.78;;;2.70;;
53642;SDS011;39546;45.534;12.048;2022-10-01T05:56:42;3.95;;;2.53;;
53642;SDS011;39546;45.534;12.048;2022-10-01T06:02:48;3.72;;;2.58;;
53642;SDS011;39546;45.534;12.048;2022-10-01T06:08:51;2.95;;;2.17;;
53642;SDS011;39546;45.534;12.048;2022-10-01T06:14:53;3.08;;;2.30;;
53642;SDS011;39546;45.534;12.048;2022-10-01T06:27:26;3.47;;;2.65;;
53642;SDS011;39546;45.534;12.048;2022-10-01T06:33:28;5.75;;;4.07;;
53642;SDS011;39546;45.534;12.048;2022-10-01T06:39:30;7.97;;;5.00;;
53642;SDS011;39546;45.534;12.048;2022-10-01T06:45:37;11.12;;;7.62;;
53642;SDS011;39546;45.534;12.048;2022-10-01T06:51:41;13.88;;;11.57;;
53642;SDS011;39546;45.534;12.048;2022-10-01T06:58:20;14.82;;;12.43;;
53642;SDS011;39546;45.534;12.048;2022-10-01T07:04:26;14.30;;;11.63;;
53642;SDS011;39546;45.534;12.048;2022-10-01T07:10:28;13.32;;;10.85;;
53642;SDS011;39546;45.534;12.048;2022-10-01T07:16:32;8.73;;;7.18;;
53642;SDS011;39546;45.534;12.048;2022-10-01T07:22:34;14.93;;;11.75;;
53642;SDS011;39546;45.534;12.048;2022-10-01T07:28:37;11.00;;;9.25;;
53642;SDS011;39546;45.534;12.048;2022-10-01T07:34:39;12.43;;;9.82;;
53642;SDS011;39546;45.534;12.048;2022-10-01T07:40:41;8.60;;;6.43;;
53642;SDS011;39546;45.534;12.048;2022-10-01T07:46:44;13.05;;;11.40;;
53642;SDS011;39546;45.534;12.048;2022-10-01T07:52:51;13.20;;;10.00;;
53642;SDS011;39546;45.534;12.048;2022-10-01T07:58:54;10.68;;;9.10;;
53642;SDS011;39546;45.534;12.048;2022-10-01T08:04:57;13.40;;;10.18;;
53642;SDS011;39546;45.534;12.048;2022-10-01T08:11:17;10.65;;;8.80;;
53642;SDS011;39546;45.534;12.048;2022-10-01T08:17:19;18.77;;;16.15;;
53642;SDS011;39546;45.534;12.048;2022-10-01T08:23:22;16.42;;;13.75;;
53642;SDS011;39546;45.534;12.048;2022-10-01T08:29:24;20.42;;;18.33;;
53642;SDS011;39546;45.534;12.048;2022-10-01T08:35:27;19.77;;;14.77;;
53642;SDS011;39546;45.534;12.048;2022-10-01T08:41:38;22.20;;;15.20;;
53642;SDS011;39546;45.534;12.048;2022-10-01T08:47:53;13.52;;;12.13;;
53642;SDS011;39546;45.534;12.048;2022-10-01T08:54:09;12.57;;;10.98;;
53642;SDS011;39546;45.534;12.048;2022-10-01T09:00:24;14.45;;;12.00;;
53642;SDS011;39546;45.534;12.048;2022-10-01T09:06:27;18.20;;;16.30;;
53642;SDS011;39546;45.534;12.048;2022-10-01T09:12:32;13.73;;;11.05;;
53642;SDS011;39546;45.534;12.048;2022-10-01T09:25:22;14.27;;;10.88;;
53642;SDS011;39546;45.534;12.048;2022-10-01T09:31:27;12.10;;;10.80;;
53642;SDS011;39546;45.534;12.048;2022-10-01T09:37:38;16.42;;;13.18;;
53642;SDS011;39546;45.534;12.048;2022-10-01T09:43:53;16.30;;;13.05;;
53642;SDS011;39546;45.534;12.048;2022-10-01T09:49:56;16.67;;;9.45;;
53642;SDS011;39546;45.534;12.048;2022-10-01T09:56:02;10.43;;;8.18;;
53642;SDS011;39546;45.534;12.048;2022-10-01T10:08:32;13.02;;;11.50;;
53642;SDS011;39546;45.534;12.048;2022-10-01T10:14:37;10.98;;;8.40;;
53642;SDS011;39546;45.534;12.048;2022-10-01T10:20:49;12.40;;;9.02;;
53642;SDS011;39546;45.534;12.048;2022-10-01T10:26:55;10.55;;;8.93;;
53642;SDS011;39546;45.534;12.048;2022-10-01T10:33:02;10.93;;;8.98;;
53642;SDS011;39546;45.534;12.048;2022-10-01T10:39:11;9.18;;;7.32;;
53642;SDS011;39546;45.534;12.048;2022-10-01T10:45:27;10.20;;;8.23;;
53642;SDS011;39546;45.534;12.048;2022-10-01T10:58:18;10.63;;;7.93;;
53642;SDS011;39546;45.534;12.048;2022-10-01T11:04:26;7.72;;;5.22;;
53642;SDS011;39546;45.534;12.048;2022-10-01T11:29:43;11.73;;;7.78;;
53642;SDS011;39546;45.534;12.048;2022-10-01T11:42:38;13.30;;;9.90;;
53642;SDS011;39546;45.534;12.048;2022-10-01T11:48:48;16.15;;;11.40;;
53642;SDS011;39546;45.534;12.048;2022-10-01T11:54:59;14.50;;;10.75;;
53642;SDS011;39546;45.534;12.048;2022-10-01T12:01:39;17.02;;;12.50;;
53642;SDS011;39546;45.534;12.048;2022-10-01T12:07:48;18.83;;;15.70;;
53642;SDS011;39546;45.534;12.048;2022-10-01T12:14:09;13.27;;;9.88;;
53642;SDS011;39546;45.534;12.048;2022-10-01T12:27:05;18.65;;;13.27;;
53642;SDS011;39546;45.534;12.048;2022-10-01T12:33:28;12.95;;;9.27;;
53642;SDS011;39546;45.534;12.048;2022-10-01T12:46:38;17.02;;;13.43;;
53642;SDS011;39546;45.534;12.048;2022-10-01T13:31:16;8.98;;;5.30;;
53642;SDS011;39546;45.534;12.048;2022-10-01T13:37:32;6.50;;;4.18;;
53642;SDS011;39546;45.534;12.048;2022-10-01T13:43:36;9.75;;;5.40;;
53642;SDS011;39546;45.534;12.048;2022-10-01T13:49:38;8.40;;;5.78;;
53642;SDS011;39546;45.534;12.048;2022-10-01T13:55:44;6.32;;;4.90;;
53642;SDS011;39546;45.534;12.048;2022-10-01T14:01:46;7.32;;;4.85;;
53642;SDS011;39546;45.534;12.048;2022-10-01T14:07:51;10.63;;;7.50;;
53642;SDS011;39546;45.534;12.048;2022-10-01T14:14:03;8.90;;;4.35;;
53642;SDS011;39546;45.534;12.048;2022-10-01T14:20:33;7.30;;;5.20;;
53642;SDS011;39546;45.534;12.048;2022-10-01T14:27:01;6.20;;;4.33;;
53642;SDS011;39546;45.534;12.048;2022-10-01T14:40:13;7.45;;;4.25;;
53642;SDS011;39546;45.534;12.048;2022-10-01T14:46:23;5.70;;;3.75;;
53642;SDS011;39546;45.534;12.048;2022-10-01T14:52:26;4.65;;;3.15;;
53642;SDS011;39546;45.534;12.048;2022-10-01T14:58:37;4.25;;;2.55;;
53642;SDS011;39546;45.534;12.048;2022-10-01T15:04:49;7.87;;;4.25;;
53642;SDS011;39546;45.534;12.048;2022-10-01T15:10:56;5.53;;;3.47;;
53642;SDS011;39546;45.534;12.048;2022-10-01T15:17:18;4.25;;;2.70;;
53642;SDS011;39546;45.534;12.048;2022-10-01T15:23:23;4.85;;;3.25;;
53642;SDS011;39546;45.534;12.048;2022-10-01T15:29:26;3.47;;;2.40;;
53642;SDS011;39546;45.534;12.048;2022-10-01T15:35:28;5.57;;;2.25;;
53642;SDS011;39546;45.534;12.048;2022-10-01T15:41:30;2.47;;;1.67;;
53642;SDS011;39546;45.534;12.048;2022-10-01T15:47:54;1.85;;;1.15;;
53642;SDS011;39546;45.534;12.048;2022-10-01T15:54:05;2.53;;;1.60;;
53642;SDS011;39546;45.534;12.048;2022-10-01T16:00:23;1.80;;;1.27;;
53642;SDS011;39546;45.534;12.048;2022-10-01T16:06:27;2.22;;;1.73;;
53642;SDS011;39546;45.534;12.048;2022-10-01T16:12:46;1.45;;;0.98;;
53642;SDS011;39546;45.534;12.048;2022-10-01T16:18:58;2.33;;;1.48;;
53642;SDS011;39546;45.534;12.048;2022-10-01T16:31:39;6.07;;;3.05;;
53642;SDS011;39546;45.534;12.048;2022-10-01T16:37:45;3.90;;;2.20;;
53642;SDS011;39546;45.534;12.048;2022-10-01T16:43:51;2.67;;;2.17;;
53642;SDS011;39546;45.534;12.048;2022-10-01T16:50:10;4.28;;;2.10;;
53642;SDS011;39546;45.534;12.048;2022-10-01T16:56:14;2.92;;;2.05;;
53642;SDS011;39546;45.534;12.048;2022-10-01T17:02:16;3.87;;;2.53;;
53642;SDS011;39546;45.534;12.048;2022-10-01T17:08:19;3.95;;;2.05;;
53642;SDS011;39546;45.534;12.048;2022-10-01T17:14:20;2.60;;;1.77;;
53642;SDS011;39546;45.534;12.048;2022-10-01T17:20:24;3.95;;;2.08;;
53642;SDS011;39546;45.534;12.048;2022-10-01T17:26:31;3.28;;;2.20;;
53642;SDS011;39546;45.534;12.048;2022-10-01T17:32:51;3.75;;;2.35;;
53642;SDS011;39546;45.534;12.048;2022-10-01T17:38:53;2.25;;;1.83;;
53642;SDS011;39546;45.534;12.048;2022-10-01T17:44:56;5.70;;;3.08;;
53642;SDS011;39546;45.534;12.048;2022-10-01T17:51:07;3.83;;;2.55;;
53642;SDS011;39546;45.534;12.048;2022-10-01T18:03:34;3.75;;;2.83;;
53642;SDS011;39546;45.534;12.048;2022-10-01T18:16:09;3.83;;;2.55;;
53642;SDS011;39546;45.534;12.048;2022-10-01T18:22:49;3.78;;;2.78;;
53642;SDS011;39546;45.534;12.048;2022-10-01T18:28:52;3.45;;;2.53;;
53642;SDS011;39546;45.534;12.048;2022-10-01T18:34:55;4.93;;;2.42;;
53642;SDS011;39546;45.534;12.048;2022-10-01T18:41:22;5.87;;;2.17;;
53642;SDS011;39546;45.534;12.048;2022-10-01T19:00:12;5.40;;;3.40;;
53642;SDS011;39546;45.534;12.048;2022-10-01T19:06:26;4.27;;;3.03;;
53642;SDS011;39546;45.534;12.048;2022-10-01T19:19:21;4.97;;;3.08;;
53642;SDS011;39546;45.534;12.048;2022-10-01T19:25:49;6.95;;;3.17;;
53642;SDS011;39546;45.534;12.048;2022-10-01T19:31:59;5.25;;;3.10;;
53642;SDS011;39546;45.534;12.048;2022-10-01T19:38:03;4.37;;;2.87;;
53642;SDS011;39546;45.534;12.048;2022-10-01T19:44:27;4.43;;;2.95;;
53642;SDS011;39546;45.534;12.048;2022-10-01T19:50:33;5.22;;;2.92;;
53642;SDS011;39546;45.534;12.048;2022-10-01T19:56:40;3.35;;;2.67;;
53642;SDS011;39546;45.534;12.048;2022-10-01T20:09:22;9.30;;;3.78;;
53642;SDS011;39546;45.534;12.048;2022-10-01T20:28:34;4.60;;;3.28;;
53642;SDS011;39546;45.534;12.048;2022-10-01T20:34:50;8.50;;;4.35;;
53642;SDS011;39546;45.534;12.048;2022-10-01T20:41:15;7.12;;;3.83;;
53642;SDS011;39546;45.534;12.048;2022-10-01T20:47:24;5.82;;;2.87;;
53642;SDS011;39546;45.534;12.048;2022-10-01T20:53:44;5.65;;;3.80;;
53642;SDS011;39546;45.534;12.048;2022-10-01T20:59:51;5.50;;;4.18;;
53642;SDS011;39546;45.534;12.048;2022-10-01T21:24:56;5.53;;;4.05;;
53642;SDS011;39546;45.534;12.048;2022-10-01T21:31:41;7.37;;;4.28;;
53642;SDS011;39546;45.534;12.048;2022-10-01T22:03:30;9.52;;;5.68;;
53642;SDS011;39546;45.534;12.048;2022-10-01T22:09:40;8.63;;;4.62;;
53642;SDS011;39546;45.534;12.048;2022-10-01T22:16:14;6.22;;;3.80;;
53642;SDS011;39546;45.534;12.048;2022-10-01T22:28:49;6.82;;;5.10;;
53642;SDS011;39546;45.534;12.048;2022-10-01T22:41:27;9.52;;;4.25;;
53642;SDS011;39546;45.534;12.048;2022-10-01T22:54:14;7.72;;;6.03;;
53642;SDS011;39546;45.534;12.048;2022-10-01T23:00:24;7.12;;;4.85;;
53642;SDS011;39546;45.534;12.048;2022-10-01T23:12:46;9.07;;;5.80;;
53642;SDS011;39546;45.534;12.048;2022-10-01T23:19:11;7.12;;;5.18;;
53642;SDS011;39546;45.534;12.048;2022-10-01T23:44:41;6.43;;;4.57;;
